LFRG/DOL METAR and TAF weather

Enter ICAO airport designator
Station Type Date Time Source
LFRG METAR 2019/10/23 12:30 UTC NOAA

LFRG 231230Z AUTO 08004KT 030V180 9999 OVC011 15/12 Q1010 TEMPO BKN005


Station Type Date Time Source
LFRG Decoded METAR 2019/10/23 12:30 UTC NOAA

Station name not available
Oct 23, 2019 - 08:30 AM EDT / 2019.10.23 1230 UTC
Wind: from the E (080 degrees) at 5 MPH (4 KT) (direction variable):0
Visibility: greater than 7 mile(s):0
Sky conditions: overcast
Temperature: 59 F (15 C)
Dew Point: 53 F (12 C)
Relative Humidity: 82%
Pressure (altimeter): 29.83 in. Hg (1010 hPa)
ob: LFRG 231230Z AUTO 08004KT 030V180 9999 OVC011 15/12 Q1010 TEMPO BKN005
cycle: 12

Station Type Date Time Source
LFRG TAF 2014/12/22 18:42 UTC NOAA

TAF
AMD TAF
AMD LFRG 221837Z 2218/2221 25015KT 9999 OVC015
TEMPO 2218/2221 BKN007 PROB30
TEMPO 2218/2221 25015G25KT 4000 DZ BKN003

Example: see airport list